sensor_id;sensor_type;location;lat;lon;timestamp;P1;durP1;ratioP1;P2;durP2;ratioP2
29916;SDS011;16786;49.466;11.068;2023-06-26T00:00:00;12.02;;;10.73;;
29916;SDS011;16786;49.466;11.068;2023-06-26T00:02:31;14.13;;;10.73;;
29916;SDS011;16786;49.466;11.068;2023-06-26T00:05:00;12.00;;;10.70;;
29916;SDS011;16786;49.466;11.068;2023-06-26T00:07:30;12.02;;;10.82;;
29916;SDS011;16786;49.466;11.068;2023-06-26T00:10:01;11.60;;;10.48;;
29916;SDS011;16786;49.466;11.068;2023-06-26T00:12:32;12.07;;;10.88;;
29916;SDS011;16786;49.466;11.068;2023-06-26T00:14:59;12.18;;;10.82;;
29916;SDS011;16786;49.466;11.068;2023-06-26T00:17:29;12.52;;;10.70;;
29916;SDS011;16786;49.466;11.068;2023-06-26T00:19:57;12.13;;;10.85;;
29916;SDS011;16786;49.466;11.068;2023-06-26T00:22:24;12.63;;;10.40;;
29916;SDS011;16786;49.466;11.068;2023-06-26T00:24:51;12.20;;;10.93;;
29916;SDS011;16786;49.466;11.068;2023-06-26T00:27:19;11.85;;;10.65;;
29916;SDS011;16786;49.466;11.068;2023-06-26T00:29:48;12.70;;;11.25;;
29916;SDS011;16786;49.466;11.068;2023-06-26T00:32:18;11.27;;;10.07;;
29916;SDS011;16786;49.466;11.068;2023-06-26T00:34:47;12.27;;;10.65;;
29916;SDS011;16786;49.466;11.068;2023-06-26T00:37:16;12.13;;;10.82;;
29916;SDS011;16786;49.466;11.068;2023-06-26T00:39:44;11.77;;;10.57;;
29916;SDS011;16786;49.466;11.068;2023-06-26T00:42:11;11.48;;;10.27;;
29916;SDS011;16786;49.466;11.068;2023-06-26T00:44:38;12.23;;;10.93;;
29916;SDS011;16786;49.466;11.068;2023-06-26T00:47:06;11.93;;;10.73;;
29916;SDS011;16786;49.466;11.068;2023-06-26T00:49:34;11.93;;;10.57;;
29916;SDS011;16786;49.466;11.068;2023-06-26T00:52:01;12.00;;;10.80;;
29916;SDS011;16786;49.466;11.068;2023-06-26T00:54:30;11.63;;;10.43;;
29916;SDS011;16786;49.466;11.068;2023-06-26T00:56:59;11.57;;;10.38;;
29916;SDS011;16786;49.466;11.068;2023-06-26T00:59:27;11.77;;;10.57;;
29916;SDS011;16786;49.466;11.068;2023-06-26T01:01:54;13.65;;;10.60;;
29916;SDS011;16786;49.466;11.068;2023-06-26T01:04:22;11.98;;;10.70;;
29916;SDS011;16786;49.466;11.068;2023-06-26T01:06:54;12.48;;;10.90;;
29916;SDS011;16786;49.466;11.068;2023-06-26T01:09:25;12.25;;;11.05;;
29916;SDS011;16786;49.466;11.068;2023-06-26T01:11:55;14.73;;;11.55;;
29916;SDS011;16786;49.466;11.068;2023-06-26T01:14:23;13.43;;;10.77;;
29916;SDS011;16786;49.466;11.068;2023-06-26T01:16:51;11.57;;;10.38;;
29916;SDS011;16786;49.466;11.068;2023-06-26T01:19:20;12.43;;;10.90;;
29916;SDS011;16786;49.466;11.068;2023-06-26T01:24:45;12.13;;;10.82;;
29916;SDS011;16786;49.466;11.068;2023-06-26T01:27:48;12.50;;;10.45;;
29916;SDS011;16786;49.466;11.068;2023-06-26T01:30:19;12.00;;;10.80;;
29916;SDS011;16786;49.466;11.068;2023-06-26T01:32:48;10.48;;;9.48;;
29916;SDS011;16786;49.466;11.068;2023-06-26T01:35:16;11.55;;;9.95;;
29916;SDS011;16786;49.466;11.068;2023-06-26T01:37:44;13.82;;;10.40;;
29916;SDS011;16786;49.466;11.068;2023-06-26T01:40:12;11.50;;;10.15;;
29916;SDS011;16786;49.466;11.068;2023-06-26T01:42:39;12.13;;;10.90;;
29916;SDS011;16786;49.466;11.068;2023-06-26T01:45:10;12.05;;;10.63;;
29916;SDS011;16786;49.466;11.068;2023-06-26T01:47:49;11.57;;;10.10;;
29916;SDS011;16786;49.466;11.068;2023-06-26T01:50:24;11.30;;;10.10;;
29916;SDS011;16786;49.466;11.068;2023-06-26T01:52:58;11.57;;;10.38;;
29916;SDS011;16786;49.466;11.068;2023-06-26T01:55:47;11.55;;;10.32;;
29916;SDS011;16786;49.466;11.068;2023-06-26T01:58:20;11.13;;;9.90;;
29916;SDS011;16786;49.466;11.068;2023-06-26T02:00:50;13.18;;;10.60;;
29916;SDS011;16786;49.466;11.068;2023-06-26T02:03:18;11.98;;;10.27;;
29916;SDS011;16786;49.466;11.068;2023-06-26T02:05:48;12.15;;;10.18;;
29916;SDS011;16786;49.466;11.068;2023-06-26T02:08:16;12.07;;;10.80;;
29916;SDS011;16786;49.466;11.068;2023-06-26T02:10:48;12.07;;;10.80;;
29916;SDS011;16786;49.466;11.068;2023-06-26T02:13:16;12.02;;;10.73;;
29916;SDS011;16786;49.466;11.068;2023-06-26T02:15:43;12.15;;;10.65;;
29916;SDS011;16786;49.466;11.068;2023-06-26T02:18:11;12.60;;;10.88;;
29916;SDS011;16786;49.466;11.068;2023-06-26T02:20:38;12.35;;;10.50;;
29916;SDS011;16786;49.466;11.068;2023-06-26T02:23:07;13.55;;;11.32;;
29916;SDS011;16786;49.466;11.068;2023-06-26T02:25:35;14.18;;;11.18;;
29916;SDS011;16786;49.466;11.068;2023-06-26T02:28:02;11.68;;;10.40;;
29916;SDS011;16786;49.466;11.068;2023-06-26T02:30:30;11.73;;;10.52;;
29916;SDS011;16786;49.466;11.068;2023-06-26T02:32:59;12.18;;;10.90;;
29916;SDS011;16786;49.466;11.068;2023-06-26T02:35:26;12.77;;;11.45;;
29916;SDS011;16786;49.466;11.068;2023-06-26T02:37:54;13.50;;;11.80;;
29916;SDS011;16786;49.466;11.068;2023-06-26T02:40:22;12.77;;;11.48;;
29916;SDS011;16786;49.466;11.068;2023-06-26T02:42:51;13.10;;;11.73;;
29916;SDS011;16786;49.466;11.068;2023-06-26T02:45:20;14.07;;;10.95;;
29916;SDS011;16786;49.466;11.068;2023-06-26T02:47:48;12.80;;;10.52;;
29916;SDS011;16786;49.466;11.068;2023-06-26T02:50:15;11.20;;;10.10;;
29916;SDS011;16786;49.466;11.068;2023-06-26T02:53:01;13.57;;;10.85;;
29916;SDS011;16786;49.466;11.068;2023-06-26T02:55:29;12.27;;;10.93;;
29916;SDS011;16786;49.466;11.068;2023-06-26T02:57:57;13.20;;;10.98;;
29916;SDS011;16786;49.466;11.068;2023-06-26T03:00:24;12.35;;;10.85;;
29916;SDS011;16786;49.466;11.068;2023-06-26T03:02:53;13.50;;;10.90;;
29916;SDS011;16786;49.466;11.068;2023-06-26T03:05:22;12.48;;;11.18;;
29916;SDS011;16786;49.466;11.068;2023-06-26T03:07:51;13.95;;;10.90;;
29916;SDS011;16786;49.466;11.068;2023-06-26T03:10:20;13.50;;;11.15;;
29916;SDS011;16786;49.466;11.068;2023-06-26T03:12:48;12.52;;;11.23;;
29916;SDS011;16786;49.466;11.068;2023-06-26T03:15:17;13.07;;;11.73;;
29916;SDS011;16786;49.466;11.068;2023-06-26T03:17:46;12.82;;;11.07;;
29916;SDS011;16786;49.466;11.068;2023-06-26T03:20:21;12.68;;;11.32;;
29916;SDS011;16786;49.466;11.068;2023-06-26T03:22:53;12.90;;;11.05;;
29916;SDS011;16786;49.466;11.068;2023-06-26T03:25:22;12.80;;;10.98;;
29916;SDS011;16786;49.466;11.068;2023-06-26T03:27:56;13.02;;;11.63;;
29916;SDS011;16786;49.466;11.068;2023-06-26T03:30:27;13.05;;;11.73;;
29916;SDS011;16786;49.466;11.068;2023-06-26T03:32:58;13.00;;;11.70;;
29916;SDS011;16786;49.466;11.068;2023-06-26T03:35:26;12.02;;;10.70;;
29916;SDS011;16786;49.466;11.068;2023-06-26T03:37:53;11.55;;;10.45;;
29916;SDS011;16786;49.466;11.068;2023-06-26T03:40:22;12.20;;;10.82;;
29916;SDS011;16786;49.466;11.068;2023-06-26T03:42:50;12.40;;;10.93;;
29916;SDS011;16786;49.466;11.068;2023-06-26T03:45:19;11.98;;;10.68;;
29916;SDS011;16786;49.466;11.068;2023-06-26T03:47:48;11.52;;;10.38;;
29916;SDS011;16786;49.466;11.068;2023-06-26T03:50:16;13.20;;;10.75;;
29916;SDS011;16786;49.466;11.068;2023-06-26T03:52:44;12.32;;;10.70;;
29916;SDS011;16786;49.466;11.068;2023-06-26T03:55:12;11.63;;;10.43;;
29916;SDS011;16786;49.466;11.068;2023-06-26T03:57:40;11.70;;;10.50;;
29916;SDS011;16786;49.466;11.068;2023-06-26T04:00:09;11.63;;;10.43;;
29916;SDS011;16786;49.466;11.068;2023-06-26T04:02:41;16.77;;;10.52;;
29916;SDS011;16786;49.466;11.068;2023-06-26T04:05:10;12.10;;;10.80;;
29916;SDS011;16786;49.466;11.068;2023-06-26T04:07:40;15.18;;;11.55;;
29916;SDS011;16786;49.466;11.068;2023-06-26T04:10:08;11.85;;;10.65;;
29916;SDS011;16786;49.466;11.068;2023-06-26T04:12:36;15.88;;;10.50;;
29916;SDS011;16786;49.466;11.068;2023-06-26T04:15:04;12.88;;;10.85;;
29916;SDS011;16786;49.466;11.068;2023-06-26T04:17:32;12.93;;;11.13;;
29916;SDS011;16786;49.466;11.068;2023-06-26T04:20:00;12.35;;;11.15;;
29916;SDS011;16786;49.466;11.068;2023-06-26T04:22:28;12.20;;;11.00;;
29916;SDS011;16786;49.466;11.068;2023-06-26T04:24:56;13.07;;;11.82;;
29916;SDS011;16786;49.466;11.068;2023-06-26T04:27:25;12.88;;;11.57;;
29916;SDS011;16786;49.466;11.068;2023-06-26T04:29:52;13.32;;;11.93;;
29916;SDS011;16786;49.466;11.068;2023-06-26T04:32:21;13.73;;;12.30;;
29916;SDS011;16786;49.466;11.068;2023-06-26T04:34:49;12.95;;;11.65;;
29916;SDS011;16786;49.466;11.068;2023-06-26T04:37:17;13.15;;;11.77;;
29916;SDS011;16786;49.466;11.068;2023-06-26T04:39:46;13.07;;;11.60;;
29916;SDS011;16786;49.466;11.068;2023-06-26T04:42:13;12.15;;;10.98;;
29916;SDS011;16786;49.466;11.068;2023-06-26T04:44:41;13.00;;;11.70;;
29916;SDS011;16786;49.466;11.068;2023-06-26T04:47:09;13.27;;;11.55;;
29916;SDS011;16786;49.466;11.068;2023-06-26T04:49:38;13.75;;;11.68;;
29916;SDS011;16786;49.466;11.068;2023-06-26T04:52:05;13.00;;;11.70;;
29916;SDS011;16786;49.466;11.068;2023-06-26T04:54:33;12.88;;;11.65;;
29916;SDS011;16786;49.466;11.068;2023-06-26T04:57:00;13.52;;;11.55;;
29916;SDS011;16786;49.466;11.068;2023-06-26T04:59:28;12.80;;;11.60;;
29916;SDS011;16786;49.466;11.068;2023-06-26T05:01:56;13.25;;;11.85;;
29916;SDS011;16786;49.466;11.068;2023-06-26T05:04:24;13.70;;;11.73;;
29916;SDS011;16786;49.466;11.068;2023-06-26T05:06:51;13.45;;;12.10;;
29916;SDS011;16786;49.466;11.068;2023-06-26T05:09:18;14.15;;;12.63;;
29916;SDS011;16786;49.466;11.068;2023-06-26T05:11:46;14.73;;;13.23;;
29916;SDS011;16786;49.466;11.068;2023-06-26T05:14:14;12.70;;;11.40;;
29916;SDS011;16786;49.466;11.068;2023-06-26T05:16:41;16.25;;;14.38;;
29916;SDS011;16786;49.466;11.068;2023-06-26T05:19:08;17.83;;;14.52;;
29916;SDS011;16786;49.466;11.068;2023-06-26T05:21:37;18.45;;;15.57;;
29916;SDS011;16786;49.466;11.068;2023-06-26T05:24:05;18.45;;;13.63;;
29916;SDS011;16786;49.466;11.068;2023-06-26T05:26:34;19.98;;;13.50;;
29916;SDS011;16786;49.466;11.068;2023-06-26T05:29:02;14.35;;;12.85;;
29916;SDS011;16786;49.466;11.068;2023-06-26T05:31:31;15.93;;;13.10;;
29916;SDS011;16786;49.466;11.068;2023-06-26T05:34:01;13.52;;;12.13;;
29916;SDS011;16786;49.466;11.068;2023-06-26T05:36:31;12.98;;;11.63;;
29916;SDS011;16786;49.466;11.068;2023-06-26T05:39:00;13.88;;;11.95;;
29916;SDS011;16786;49.466;11.068;2023-06-26T05:41:28;13.77;;;12.40;;
29916;SDS011;16786;49.466;11.068;2023-06-26T05:43:55;13.65;;;12.25;;
29916;SDS011;16786;49.466;11.068;2023-06-26T05:46:24;15.30;;;12.57;;
29916;SDS011;16786;49.466;11.068;2023-06-26T05:48:51;13.75;;;12.23;;
29916;SDS011;16786;49.466;11.068;2023-06-26T05:51:19;13.32;;;11.30;;
29916;SDS011;16786;49.466;11.068;2023-06-26T05:53:46;15.43;;;12.18;;
29916;SDS011;16786;49.466;11.068;2023-06-26T05:56:14;12.88;;;11.45;;
29916;SDS011;16786;49.466;11.068;2023-06-26T05:58:42;13.00;;;11.70;;
29916;SDS011;16786;49.466;11.068;2023-06-26T06:01:10;16.02;;;12.60;;
29916;SDS011;16786;49.466;11.068;2023-06-26T06:03:38;13.27;;;11.82;;
29916;SDS011;16786;49.466;11.068;2023-06-26T06:06:07;13.55;;;11.63;;
29916;SDS011;16786;49.466;11.068;2023-06-26T06:08:34;20.08;;;11.77;;
29916;SDS011;16786;49.466;11.068;2023-06-26T06:11:02;20.77;;;14.13;;
29916;SDS011;16786;49.466;11.068;2023-06-26T06:13:30;17.10;;;14.77;;
29916;SDS011;16786;49.466;11.068;2023-06-26T06:15:57;16.35;;;13.43;;
29916;SDS011;16786;49.466;11.068;2023-06-26T06:18:24;14.00;;;12.23;;
29916;SDS011;16786;49.466;11.068;2023-06-26T06:20:52;13.80;;;10.77;;
29916;SDS011;16786;49.466;11.068;2023-06-26T06:23:20;12.30;;;11.10;;
29916;SDS011;16786;49.466;11.068;2023-06-26T06:25:47;14.63;;;11.35;;
29916;SDS011;16786;49.466;11.068;2023-06-26T06:28:14;14.32;;;12.10;;
29916;SDS011;16786;49.466;11.068;2023-06-26T06:30:43;12.57;;;11.27;;
29916;SDS011;16786;49.466;11.068;2023-06-26T06:33:12;12.95;;;10.32;;
29916;SDS011;16786;49.466;11.068;2023-06-26T06:35:40;12.07;;;10.70;;
29916;SDS011;16786;49.466;11.068;2023-06-26T06:38:07;14.57;;;11.85;;
29916;SDS011;16786;49.466;11.068;2023-06-26T06:40:34;12.43;;;11.23;;
29916;SDS011;16786;49.466;11.068;2023-06-26T06:43:02;12.95;;;11.63;;
29916;SDS011;16786;49.466;11.068;2023-06-26T06:45:30;13.80;;;11.45;;
29916;SDS011;16786;49.466;11.068;2023-06-26T06:47:57;14.43;;;11.40;;
29916;SDS011;16786;49.466;11.068;2023-06-26T06:50:25;13.43;;;12.02;;
29916;SDS011;16786;49.466;11.068;2023-06-26T06:52:52;18.23;;;13.75;;
29916;SDS011;16786;49.466;11.068;2023-06-26T06:55:20;13.25;;;11.68;;
29916;SDS011;16786;49.466;11.068;2023-06-26T06:57:47;12.65;;;11.25;;
29916;SDS011;16786;49.466;11.068;2023-06-26T07:00:14;13.35;;;12.05;;
29916;SDS011;16786;49.466;11.068;2023-06-26T07:02:43;13.15;;;11.40;;
29916;SDS011;16786;49.466;11.068;2023-06-26T07:05:12;15.75;;;10.88;;
29916;SDS011;16786;49.466;11.068;2023-06-26T07:07:40;16.50;;;10.88;;
29916;SDS011;16786;49.466;11.068;2023-06-26T07:10:12;16.48;;;11.38;;
29916;SDS011;16786;49.466;11.068;2023-06-26T07:12:40;12.23;;;11.02;;
29916;SDS011;16786;49.466;11.068;2023-06-26T07:15:08;13.90;;;11.07;;
29916;SDS011;16786;49.466;11.068;2023-06-26T07:17:36;14.90;;;11.77;;
29916;SDS011;16786;49.466;11.068;2023-06-26T07:20:05;12.43;;;11.13;;
29916;SDS011;16786;49.466;11.068;2023-06-26T07:22:35;13.50;;;11.50;;
29916;SDS011;16786;49.466;11.068;2023-06-26T07:25:04;12.05;;;10.55;;
29916;SDS011;16786;49.466;11.068;2023-06-26T07:27:40;12.45;;;11.25;;
29916;SDS011;16786;49.466;11.068;2023-06-26T07:30:08;11.88;;;10.43;;
29916;SDS011;16786;49.466;11.068;2023-06-26T07:32:37;12.52;;;11.32;;
29916;SDS011;16786;49.466;11.068;2023-06-26T07:35:05;12.75;;;11.20;;
29916;SDS011;16786;49.466;11.068;2023-06-26T07:37:33;13.45;;;11.25;;
29916;SDS011;16786;49.466;11.068;2023-06-26T07:40:00;13.63;;;11.93;;
29916;SDS011;16786;49.466;11.068;2023-06-26T07:42:28;13.02;;;11.73;;
29916;SDS011;16786;49.466;11.068;2023-06-26T07:44:56;14.57;;;11.95;;
29916;SDS011;16786;49.466;11.068;2023-06-26T07:47:24;12.75;;;11.38;;
29916;SDS011;16786;49.466;11.068;2023-06-26T07:49:52;14.05;;;11.23;;
29916;SDS011;16786;49.466;11.068;2023-06-26T07:52:21;12.50;;;10.90;;
29916;SDS011;16786;49.466;11.068;2023-06-26T07:54:48;13.43;;;11.75;;
29916;SDS011;16786;49.466;11.068;2023-06-26T07:57:16;13.27;;;11.88;;
29916;SDS011;16786;49.466;11.068;2023-06-26T07:59:43;13.25;;;11.85;;
29916;SDS011;16786;49.466;11.068;2023-06-26T08:02:11;12.77;;;11.45;;
29916;SDS011;16786;49.466;11.068;2023-06-26T08:04:38;13.05;;;11.10;;
29916;SDS011;16786;49.466;11.068;2023-06-26T08:07:06;12.65;;;11.35;;
29916;SDS011;16786;49.466;11.068;2023-06-26T08:09:34;14.23;;;11.90;;
29916;SDS011;16786;49.466;11.068;2023-06-26T08:12:01;12.80;;;11.48;;
29916;SDS011;16786;49.466;11.068;2023-06-26T08:14:29;16.08;;;11.48;;
29916;SDS011;16786;49.466;11.068;2023-06-26T08:16:58;14.68;;;11.82;;
29916;SDS011;16786;49.466;11.068;2023-06-26T08:19:26;13.85;;;12.32;;
29916;SDS011;16786;49.466;11.068;2023-06-26T08:21:54;14.82;;;11.35;;
29916;SDS011;16786;49.466;11.068;2023-06-26T08:24:21;12.63;;;11.30;;
29916;SDS011;16786;49.466;11.068;2023-06-26T08:26:49;13.35;;;11.70;;
29916;SDS011;16786;49.466;11.068;2023-06-26T08:29:16;13.18;;;11.07;;
29916;SDS011;16786;49.466;11.068;2023-06-26T08:31:44;14.68;;;11.60;;
29916;SDS011;16786;49.466;11.068;2023-06-26T08:34:11;13.82;;;11.82;;
29916;SDS011;16786;49.466;11.068;2023-06-26T08:36:39;13.57;;;12.18;;
29916;SDS011;16786;49.466;11.068;2023-06-26T08:39:06;13.02;;;11.73;;
29916;SDS011;16786;49.466;11.068;2023-06-26T08:41:35;14.00;;;11.45;;
29916;SDS011;16786;49.466;11.068;2023-06-26T08:44:03;12.50;;;10.70;;
29916;SDS011;16786;49.466;11.068;2023-06-26T08:46:31;17.48;;;15.55;;
29916;SDS011;16786;49.466;11.068;2023-06-26T08:49:01;13.20;;;11.85;;
29916;SDS011;16786;49.466;11.068;2023-06-26T08:51:35;13.05;;;11.85;;
29916;SDS011;16786;49.466;11.068;2023-06-26T08:54:07;14.60;;;12.10;;
29916;SDS011;16786;49.466;11.068;2023-06-26T08:56:42;13.80;;;12.18;;
29916;SDS011;16786;49.466;11.068;2023-06-26T08:59:11;13.48;;;11.60;;
29916;SDS011;16786;49.466;11.068;2023-06-26T09:01:41;14.25;;;12.82;;
29916;SDS011;16786;49.466;11.068;2023-06-26T09:04:10;13.35;;;11.95;;
29916;SDS011;16786;49.466;11.068;2023-06-26T09:06:38;13.00;;;11.60;;
29916;SDS011;16786;49.466;11.068;2023-06-26T09:09:06;13.45;;;12.15;;
29916;SDS011;16786;49.466;11.068;2023-06-26T09:11:34;12.73;;;11.27;;
29916;SDS011;16786;49.466;11.068;2023-06-26T09:14:01;13.30;;;11.18;;
29916;SDS011;16786;49.466;11.068;2023-06-26T09:16:33;12.55;;;11.25;;
29916;SDS011;16786;49.466;11.068;2023-06-26T09:19:11;12.40;;;11.20;;
29916;SDS011;16786;49.466;11.068;2023-06-26T09:24:07;13.05;;;11.30;;
29916;SDS011;16786;49.466;11.068;2023-06-26T09:26:36;11.88;;;10.73;;
29916;SDS011;16786;49.466;11.068;2023-06-26T09:29:05;11.02;;;10.02;;
29916;SDS011;16786;49.466;11.068;2023-06-26T09:31:33;12.10;;;10.90;;
29916;SDS011;16786;49.466;11.068;2023-06-26T09:34:08;11.73;;;10.63;;
29916;SDS011;16786;49.466;11.068;2023-06-26T09:36:36;11.55;;;10.32;;
29916;SDS011;16786;49.466;11.068;2023-06-26T09:39:07;12.45;;;10.38;;
29916;SDS011;16786;49.466;11.068;2023-06-26T09:41:41;12.18;;;11.02;;
29916;SDS011;16786;49.466;11.068;2023-06-26T09:44:10;11.40;;;10.30;;
29916;SDS011;16786;49.466;11.068;2023-06-26T09:49:11;12.13;;;10.93;;
29916;SDS011;16786;49.466;11.068;2023-06-26T09:51:40;12.00;;;10.80;;
29916;SDS011;16786;49.466;11.068;2023-06-26T09:54:09;11.95;;;10.48;;
29916;SDS011;16786;49.466;11.068;2023-06-26T09:56:37;12.00;;;10.77;;
29916;SDS011;16786;49.466;11.068;2023-06-26T09:59:07;11.10;;;10.00;;
29916;SDS011;16786;49.466;11.068;2023-06-26T10:01:39;11.35;;;10.35;;
29916;SDS011;16786;49.466;11.068;2023-06-26T10:04:08;10.98;;;9.88;;
29916;SDS011;16786;49.466;11.068;2023-06-26T10:06:37;13.45;;;10.45;;
29916;SDS011;16786;49.466;11.068;2023-06-26T10:09:08;10.57;;;9.57;;
29916;SDS011;16786;49.466;11.068;2023-06-26T10:11:41;12.90;;;11.63;;
29916;SDS011;16786;49.466;11.068;2023-06-26T10:14:19;18.17;;;11.73;;
29916;SDS011;16786;49.466;11.068;2023-06-26T10:16:48;13.05;;;11.13;;
29916;SDS011;16786;49.466;11.068;2023-06-26T10:19:18;12.05;;;10.90;;
29916;SDS011;16786;49.466;11.068;2023-06-26T10:21:54;11.73;;;10.63;;
29916;SDS011;16786;49.466;11.068;2023-06-26T10:24:23;13.05;;;11.65;;
29916;SDS011;16786;49.466;11.068;2023-06-26T10:26:57;17.23;;;12.33;;
29916;SDS011;16786;49.466;11.068;2023-06-26T10:29:29;12.85;;;11.63;;
29916;SDS011;16786;49.466;11.068;2023-06-26T10:31:58;13.45;;;11.20;;
29916;SDS011;16786;49.466;11.068;2023-06-26T10:34:30;12.45;;;11.20;;
29916;SDS011;16786;49.466;11.068;2023-06-26T10:36:59;12.02;;;10.82;;
29916;SDS011;16786;49.466;11.068;2023-06-26T10:39:33;12.00;;;10.90;;
29916;SDS011;16786;49.466;11.068;2023-06-26T10:42:15;12.55;;;10.90;;
29916;SDS011;16786;49.466;11.068;2023-06-26T10:44:47;12.00;;;10.90;;
29916;SDS011;16786;49.466;11.068;2023-06-26T10:47:31;11.93;;;10.70;;
29916;SDS011;16786;49.466;11.068;2023-06-26T10:56:01;12.10;;;11.00;;
29916;SDS011;16786;49.466;11.068;2023-06-26T10:58:40;11.55;;;10.45;;
29916;SDS011;16786;49.466;11.068;2023-06-26T11:04:06;11.05;;;9.95;;
29916;SDS011;16786;49.466;11.068;2023-06-26T11:06:35;10.98;;;9.90;;
29916;SDS011;16786;49.466;11.068;2023-06-26T11:14:18;10.82;;;9.73;;
29916;SDS011;16786;49.466;11.068;2023-06-26T11:16:46;12.05;;;10.70;;
29916;SDS011;16786;49.466;11.068;2023-06-26T11:19:18;11.85;;;10.70;;
29916;SDS011;16786;49.466;11.068;2023-06-26T11:21:49;12.05;;;10.95;;
29916;SDS011;16786;49.466;11.068;2023-06-26T11:24:18;16.02;;;12.65;;
29916;SDS011;16786;49.466;11.068;2023-06-26T11:26:46;13.63;;;11.55;;
29916;SDS011;16786;49.466;11.068;2023-06-26T11:29:13;13.55;;;11.68;;
29916;SDS011;16786;49.466;11.068;2023-06-26T11:31:41;11.85;;;10.73;;
29916;SDS011;16786;49.466;11.068;2023-06-26T11:34:12;12.52;;;10.75;;
29916;SDS011;16786;49.466;11.068;2023-06-26T11:36:43;11.80;;;10.70;;
29916;SDS011;16786;49.466;11.068;2023-06-26T11:39:13;12.93;;;9.98;;
29916;SDS011;16786;49.466;11.068;2023-06-26T11:41:41;11.38;;;10.38;;
29916;SDS011;16786;49.466;11.068;2023-06-26T11:44:09;11.88;;;10.48;;
29916;SDS011;16786;49.466;11.068;2023-06-26T11:46:38;11.77;;;10.60;;
29916;SDS011;16786;49.466;11.068;2023-06-26T11:49:06;10.82;;;9.90;;
29916;SDS011;16786;49.466;11.068;2023-06-26T11:51:34;10.80;;;9.80;;
29916;SDS011;16786;49.466;11.068;2023-06-26T11:54:07;10.32;;;9.43;;
29916;SDS011;16786;49.466;11.068;2023-06-26T11:56:34;12.15;;;10.63;;
29916;SDS011;16786;49.466;11.068;2023-06-26T11:59:04;11.25;;;9.77;;
29916;SDS011;16786;49.466;11.068;2023-06-26T12:01:38;10.95;;;9.85;;
29916;SDS011;16786;49.466;11.068;2023-06-26T12:04:08;11.57;;;10.25;;
29916;SDS011;16786;49.466;11.068;2023-06-26T12:06:40;10.63;;;9.52;;
29916;SDS011;16786;49.466;11.068;2023-06-26T12:09:10;11.10;;;10.00;;
29916;SDS011;16786;49.466;11.068;2023-06-26T12:11:39;10.80;;;9.48;;
29916;SDS011;16786;49.466;11.068;2023-06-26T12:14:10;10.88;;;9.88;;
29916;SDS011;16786;49.466;11.068;2023-06-26T12:16:40;10.32;;;9.32;;
29916;SDS011;16786;49.466;11.068;2023-06-26T12:19:09;9.60;;;8.60;;
29916;SDS011;16786;49.466;11.068;2023-06-26T12:24:04;9.40;;;8.23;;
29916;SDS011;16786;49.466;11.068;2023-06-26T12:26:33;9.13;;;8.32;;
29916;SDS011;16786;49.466;11.068;2023-06-26T12:29:04;9.30;;;8.50;;
29916;SDS011;16786;49.466;11.068;2023-06-26T12:31:33;10.30;;;8.75;;
29916;SDS011;16786;49.466;11.068;2023-06-26T12:34:08;9.40;;;8.60;;
29916;SDS011;16786;49.466;11.068;2023-06-26T12:36:44;9.45;;;8.43;;
29916;SDS011;16786;49.466;11.068;2023-06-26T12:39:17;10.15;;;9.30;;
29916;SDS011;16786;49.466;11.068;2023-06-26T12:41:49;9.95;;;9.05;;
29916;SDS011;16786;49.466;11.068;2023-06-26T12:44:20;13.07;;;8.70;;
29916;SDS011;16786;49.466;11.068;2023-06-26T12:46:58;9.82;;;8.90;;
29916;SDS011;16786;49.466;11.068;2023-06-26T12:49:31;10.55;;;9.63;;
29916;SDS011;16786;49.466;11.068;2023-06-26T12:52:06;10.90;;;9.80;;
29916;SDS011;16786;49.466;11.068;2023-06-26T12:54:40;12.55;;;9.90;;
29916;SDS011;16786;49.466;11.068;2023-06-26T12:57:09;12.68;;;10.13;;
29916;SDS011;16786;49.466;11.068;2023-06-26T12:59:37;17.65;;;10.25;;
29916;SDS011;16786;49.466;11.068;2023-06-26T13:02:06;10.57;;;9.50;;
29916;SDS011;16786;49.466;11.068;2023-06-26T13:04:35;11.82;;;10.63;;
29916;SDS011;16786;49.466;11.068;2023-06-26T13:07:02;12.02;;;9.88;;
29916;SDS011;16786;49.466;11.068;2023-06-26T13:09:32;11.45;;;10.35;;
29916;SDS011;16786;49.466;11.068;2023-06-26T13:12:01;21.80;;;11.45;;
29916;SDS011;16786;49.466;11.068;2023-06-26T13:14:31;11.80;;;10.80;;
29916;SDS011;16786;49.466;11.068;2023-06-26T13:17:02;13.38;;;10.90;;
29916;SDS011;16786;49.466;11.068;2023-06-26T13:19:35;11.32;;;10.40;;
29916;SDS011;16786;49.466;11.068;2023-06-26T13:22:03;11.77;;;10.68;;
29916;SDS011;16786;49.466;11.068;2023-06-26T13:24:31;12.57;;;11.32;;
29916;SDS011;16786;49.466;11.068;2023-06-26T13:26:59;12.32;;;11.10;;
29916;SDS011;16786;49.466;11.068;2023-06-26T13:29:28;12.40;;;11.13;;
29916;SDS011;16786;49.466;11.068;2023-06-26T13:31:55;16.98;;;10.82;;
29916;SDS011;16786;49.466;11.068;2023-06-26T13:34:24;10.98;;;9.82;;
29916;SDS011;16786;49.466;11.068;2023-06-26T13:39:22;23.30;;;10.30;;
29916;SDS011;16786;49.466;11.068;2023-06-26T13:41:51;16.73;;;9.88;;
29916;SDS011;16786;49.466;11.068;2023-06-26T13:44:19;15.98;;;10.50;;
29916;SDS011;16786;49.466;11.068;2023-06-26T13:47:06;10.73;;;9.55;;
29916;SDS011;16786;49.466;11.068;2023-06-26T13:49:36;11.73;;;10.15;;
29916;SDS011;16786;49.466;11.068;2023-06-26T13:52:03;10.00;;;9.00;;
29916;SDS011;16786;49.466;11.068;2023-06-26T13:54:31;10.35;;;9.45;;
29916;SDS011;16786;49.466;11.068;2023-06-26T13:56:59;9.82;;;8.93;;
29916;SDS011;16786;49.466;11.068;2023-06-26T13:59:28;10.13;;;9.15;;
29916;SDS011;16786;49.466;11.068;2023-06-26T14:01:56;12.20;;;9.57;;
29916;SDS011;16786;49.466;11.068;2023-06-26T14:04:24;10.60;;;9.60;;
29916;SDS011;16786;49.466;11.068;2023-06-26T14:06:53;11.85;;;9.20;;
29916;SDS011;16786;49.466;11.068;2023-06-26T14:09:20;10.57;;;9.52;;
29916;SDS011;16786;49.466;11.068;2023-06-26T14:11:48;15.82;;;9.60;;
29916;SDS011;16786;49.466;11.068;2023-06-26T14:14:16;11.13;;;10.13;;
29916;SDS011;16786;49.466;11.068;2023-06-26T14:16:43;11.50;;;10.35;;
29916;SDS011;16786;49.466;11.068;2023-06-26T14:19:11;10.75;;;9.85;;
29916;SDS011;16786;49.466;11.068;2023-06-26T14:21:41;11.50;;;10.30;;
29916;SDS011;16786;49.466;11.068;2023-06-26T14:24:10;10.95;;;9.88;;
29916;SDS011;16786;49.466;11.068;2023-06-26T14:26:38;10.95;;;10.00;;
29916;SDS011;16786;49.466;11.068;2023-06-26T14:29:05;11.15;;;9.85;;
29916;SDS011;16786;49.466;11.068;2023-06-26T14:31:33;12.55;;;10.10;;
29916;SDS011;16786;49.466;11.068;2023-06-26T14:34:01;11.80;;;10.32;;
29916;SDS011;16786;49.466;11.068;2023-06-26T14:36:30;12.43;;;11.00;;
29916;SDS011;16786;49.466;11.068;2023-06-26T14:38:58;11.35;;;10.30;;
29916;SDS011;16786;49.466;11.068;2023-06-26T14:41:29;12.00;;;10.90;;
29916;SDS011;16786;49.466;11.068;2023-06-26T14:43:58;11.10;;;10.00;;
29916;SDS011;16786;49.466;11.068;2023-06-26T14:46:26;15.60;;;10.50;;
29916;SDS011;16786;49.466;11.068;2023-06-26T14:48:55;11.63;;;9.93;;